createdAt,value
2023-01-03T00:02:44.580Z,101674.78
2023-01-03T00:09:46.207Z,101680.34
2023-01-03T00:16:50.675Z,101701.06
2023-01-03T00:23:52.323Z,101724.03
2023-01-03T00:30:54.023Z,101713.38
2023-01-03T00:37:55.760Z,101736.09
2023-01-03T00:44:57.379Z,101740.25
2023-01-03T00:51:58.948Z,101744.47
2023-01-03T00:59:00.844Z,101754.09
2023-01-03T01:06:18.598Z,101757.22
2023-01-03T01:13:20.199Z,101769.63
2023-01-03T01:20:21.840Z,101776.81
2023-01-03T01:27:23.549Z,101792.50
2023-01-03T01:34:25.250Z,101813.50
2023-01-03T01:41:47.152Z,101815.13
2023-01-03T01:48:51.013Z,101832.09
2023-01-03T01:56:01.180Z,101844.44
2023-01-03T02:03:02.924Z,101840.00
2023-01-03T02:10:05.121Z,101850.31
2023-01-03T02:17:17.988Z,101865.59
2023-01-03T02:24:47.582Z,101877.53
2023-01-03T02:31:53.548Z,101892.19
2023-01-03T02:39:13.139Z,101905.22
2023-01-03T02:46:34.865Z,101907.88
2023-01-03T02:53:40.849Z,101903.47
2023-01-03T03:00:44.295Z,101908.56
2023-01-03T03:07:45.927Z,101928.28
2023-01-03T03:14:50.796Z,101937.16
2023-01-03T03:22:10.924Z,101933.72
2023-01-03T03:29:15.739Z,101940.53
2023-01-03T03:36:42.005Z,101957.53
2023-01-03T03:44:05.464Z,101964.72
2023-01-03T03:51:09.074Z,101964.56
2023-01-03T03:58:47.786Z,101977.03
2023-01-03T04:05:52.821Z,101982.88
2023-01-03T04:12:54.470Z,101993.50
2023-01-03T04:19:56.155Z,102002.81
2023-01-03T04:26:57.757Z,102005.00
2023-01-03T04:33:59.397Z,102037.16
2023-01-03T04:41:05.800Z,102044.94
2023-01-03T04:48:07.463Z,102043.13
2023-01-03T04:55:09.685Z,102061.22
2023-01-03T05:02:11.523Z,102054.34
2023-01-03T05:09:13.369Z,102068.00
2023-01-03T05:16:15.221Z,102078.66
2023-01-03T05:23:38.028Z,102078.00
2023-01-03T05:30:39.689Z,102086.16
2023-01-03T05:37:41.295Z,102094.81
2023-01-03T05:44:42.989Z,102087.31
2023-01-03T05:51:44.565Z,102102.59
2023-01-03T05:58:46.186Z,102110.19
2023-01-03T06:05:50.374Z,102116.53
2023-01-03T06:12:52.333Z,102115.72
2023-01-03T06:19:53.959Z,102121.41
2023-01-03T06:26:55.634Z,102137.31
2023-01-03T06:33:57.257Z,102143.09
2023-01-03T06:40:59.051Z,102146.47
2023-01-03T06:48:24.021Z,102153.59
2023-01-03T06:55:25.834Z,102164.50
2023-01-03T07:02:27.701Z,102180.44
2023-01-03T07:09:29.539Z,102188.06
2023-01-03T07:16:36.183Z,102197.75
2023-01-03T07:23:38.146Z,102206.97
2023-01-03T07:30:40.840Z,102211.22
2023-01-03T07:37:42.450Z,102214.72
2023-01-03T07:44:44.116Z,102222.13
2023-01-03T07:51:45.780Z,102219.00
2023-01-03T07:58:47.859Z,102229.94
2023-01-03T08:05:49.549Z,102241.56
2023-01-03T08:13:11.633Z,102243.59
2023-01-03T08:20:13.458Z,102260.34
2023-01-03T08:27:15.244Z,102265.88
2023-01-03T08:34:22.313Z,102264.78
2023-01-03T08:41:30.516Z,102278.44
2023-01-03T08:48:32.204Z,102277.38
2023-01-03T08:55:34.023Z,102274.53
2023-01-03T09:02:36.584Z,102283.53
2023-01-03T09:09:38.441Z,102294.81
2023-01-03T09:16:45.411Z,102304.72
2023-01-03T09:23:50.840Z,102318.84
2023-01-03T09:30:52.707Z,102326.25
2023-01-03T09:37:54.267Z,102319.59
2023-01-03T09:44:55.916Z,102322.16
2023-01-03T09:52:16.188Z,102331.00
2023-01-03T09:59:36.547Z,102320.41
2023-01-03T10:07:04.829Z,102321.41
2023-01-03T10:14:25.690Z,102319.28
2023-01-03T10:21:36.299Z,102323.66
2023-01-03T10:28:40.984Z,102325.53
2023-01-03T10:35:42.691Z,102322.44
2023-01-03T10:42:44.482Z,102327.22
2023-01-03T10:49:46.646Z,102324.66
2023-01-03T10:56:48.644Z,102316.59
2023-01-03T11:04:15.266Z,102313.31
2023-01-03T11:11:28.385Z,102313.19
2023-01-03T11:18:30.307Z,102310.78
2023-01-03T11:25:50.744Z,102298.47
2023-01-03T11:33:36.875Z,102298.72
2023-01-03T11:40:54.999Z,102311.22
2023-01-03T11:48:28.219Z,102315.19
2023-01-03T11:55:29.746Z,102315.56
2023-01-03T12:02:54.057Z,102318.53
2023-01-03T12:10:16.557Z,102304.66
2023-01-03T12:17:22.150Z,102312.94
2023-01-03T12:24:26.658Z,102306.63
2023-01-03T12:31:32.959Z,102314.34
2023-01-03T12:38:37.892Z,102313.13
2023-01-03T12:46:13.113Z,102303.69
2023-01-03T12:53:27.612Z,102300.78
2023-01-03T13:00:52.636Z,102306.34
2023-01-03T13:08:33.129Z,102302.38
2023-01-03T13:15:37.142Z,102304.53
2023-01-03T13:22:48.528Z,102289.25
2023-01-03T13:29:50.064Z,102285.44
2023-01-03T13:37:07.358Z,102276.75
2023-01-03T13:44:23.786Z,102286.16
2023-01-03T13:51:40.299Z,102281.22
2023-01-03T13:58:59.361Z,102283.44
2023-01-03T14:06:19.421Z,102281.69
2023-01-03T14:13:20.863Z,102297.41
2023-01-03T14:20:26.523Z,102292.09
2023-01-03T14:27:35.099Z,102295.56
2023-01-03T14:34:40.549Z,102299.50
2023-01-03T14:41:43.386Z,102306.44
2023-01-03T14:48:46.278Z,102309.44
2023-01-03T14:55:52.497Z,102312.56
2023-01-03T15:02:57.526Z,102314.22
2023-01-03T15:10:09.332Z,102320.63
2023-01-03T15:17:10.828Z,102309.44
2023-01-03T15:24:17.580Z,102316.44
2023-01-03T15:31:28.366Z,102321.31
2023-01-03T15:38:36.500Z,102341.06
2023-01-03T15:45:39.902Z,102337.28
2023-01-03T15:52:41.553Z,102353.38
2023-01-03T15:59:43.784Z,102343.63
2023-01-03T16:06:45.430Z,102352.56
2023-01-03T16:13:49.989Z,102357.16
2023-01-03T16:20:51.576Z,102354.50
2023-01-03T16:27:53.167Z,102358.22
2023-01-03T16:34:56.915Z,102352.78
2023-01-03T16:42:13.687Z,102353.16
2023-01-03T16:49:15.326Z,102351.44
2023-01-03T16:56:17.017Z,102354.16
2023-01-03T17:03:18.849Z,102357.63
2023-01-03T17:10:29.067Z,102356.84
2023-01-03T17:17:30.788Z,102369.47
2023-01-03T17:24:32.387Z,102363.34
2023-01-03T17:31:34.169Z,102364.25
2023-01-03T17:38:35.898Z,102361.75
2023-01-03T17:45:56.190Z,102376.09
2023-01-03T17:52:58.676Z,102361.69
2023-01-03T18:00:00.558Z,102363.38
2023-01-03T18:07:02.139Z,102365.25
2023-01-03T18:14:03.831Z,102366.91
2023-01-03T18:21:06.153Z,102359.16
2023-01-03T18:28:08.445Z,102344.06
2023-01-03T18:35:14.411Z,102345.91
2023-01-03T18:42:39.081Z,102352.56
2023-01-03T18:49:40.786Z,102349.66
2023-01-03T18:56:42.423Z,102355.16
2023-01-03T19:03:44.107Z,102348.91
2023-01-03T19:10:45.902Z,102350.81
2023-01-03T19:17:47.554Z,102362.38
2023-01-03T19:24:49.141Z,102354.50
2023-01-03T19:31:51.949Z,102348.19
2023-01-03T19:38:53.632Z,102328.44
2023-01-03T19:45:55.309Z,102324.84
2023-01-03T19:52:56.920Z,102314.16
2023-01-03T19:59:59.110Z,102313.53
2023-01-03T20:07:00.722Z,102304.34
2023-01-03T20:14:04.939Z,102306.19
2023-01-03T20:21:22.088Z,102307.13
2023-01-03T20:28:31.107Z,102290.28
2023-01-03T20:42:54.619Z,102294.66
2023-01-03T20:49:56.156Z,102287.47
2023-01-03T20:56:57.742Z,102288.75
2023-01-03T21:03:59.353Z,102280.69
2023-01-03T21:11:01.150Z,102283.72
2023-01-03T21:18:03.506Z,102272.06
2023-01-03T21:25:07.175Z,102266.84
2023-01-03T21:32:10.097Z,102263.28
2023-01-03T21:39:11.775Z,102254.19
2023-01-03T21:46:20.625Z,102256.16
2023-01-03T21:53:23.106Z,102259.44
2023-01-03T22:00:24.799Z,102261.16
2023-01-03T22:07:26.493Z,102257.00
2023-01-03T22:14:28.145Z,102261.16
2023-01-03T22:21:30.760Z,102249.38
2023-01-03T22:28:34.261Z,102238.00
2023-01-03T22:35:35.936Z,102239.56
2023-01-03T22:42:37.855Z,102240.53
2023-01-03T22:49:39.723Z,102232.25
2023-01-03T22:56:41.324Z,102219.09
2023-01-03T23:03:43.731Z,102206.56
2023-01-03T23:10:45.342Z,102203.19
2023-01-03T23:17:56.542Z,102202.22
2023-01-03T23:24:58.174Z,102189.91
2023-01-03T23:32:00.108Z,102173.88
2023-01-03T23:39:01.724Z,102159.53
2023-01-03T23:46:03.536Z,102159.13
2023-01-03T23:53:05.250Z,102157.28
